createdAt,value
2018-10-04T00:01:30.962Z,99.90
2018-10-04T00:03:59.530Z,99.90
2018-10-04T00:06:28.231Z,99.90
2018-10-04T00:08:56.780Z,99.90
2018-10-04T00:11:25.385Z,99.90
2018-10-04T00:13:53.940Z,99.90
2018-10-04T00:16:22.588Z,99.90
2018-10-04T00:18:51.201Z,99.90
2018-10-04T00:21:21.911Z,99.90
2018-10-04T00:23:50.512Z,99.90
2018-10-04T00:26:19.090Z,99.90
2018-10-04T00:28:47.704Z,99.90
2018-10-04T00:31:16.325Z,99.90
2018-10-04T00:33:44.915Z,99.90
2018-10-04T00:36:13.456Z,99.90
2018-10-04T00:38:42.114Z,99.90
2018-10-04T00:41:10.692Z,99.90
2018-10-04T00:43:39.255Z,99.90
2018-10-04T00:46:07.917Z,99.90
2018-10-04T00:48:36.487Z,99.90
2018-10-04T00:51:05.165Z,99.90
2018-10-04T00:53:33.796Z,99.90
2018-10-04T00:56:02.478Z,99.90
2018-10-04T00:58:31.081Z,99.90
2018-10-04T01:01:00.097Z,99.90
2018-10-04T01:03:29.107Z,99.90
2018-10-04T01:05:58.057Z,99.90
2018-10-04T01:08:26.876Z,99.90
2018-10-04T01:10:55.523Z,99.90
2018-10-04T01:13:24.085Z,99.90
2018-10-04T01:15:52.774Z,99.90
2018-10-04T01:18:32.534Z,99.90
2018-10-04T01:21:01.232Z,99.90
2018-10-04T01:23:29.830Z,99.90
2018-10-04T01:25:58.429Z,99.90
2018-10-04T01:28:27.049Z,99.90
2018-10-04T01:30:55.614Z,99.90
2018-10-04T01:33:24.237Z,99.90
2018-10-04T01:35:52.860Z,99.90
2018-10-04T01:38:21.396Z,99.90
2018-10-04T01:40:51.109Z,99.90
2018-10-04T01:43:19.706Z,99.90
2018-10-04T01:45:48.304Z,99.90
2018-10-04T01:48:16.928Z,99.90
2018-10-04T01:50:45.534Z,99.90
2018-10-04T01:53:14.141Z,99.90
2018-10-04T01:55:42.797Z,99.90
2018-10-04T01:58:11.412Z,99.90
2018-10-04T02:00:39.977Z,99.90
2018-10-04T02:03:08.535Z,99.90
2018-10-04T02:05:37.149Z,99.90
2018-10-04T02:08:05.685Z,99.90
2018-10-04T02:10:34.506Z,99.90
2018-10-04T02:13:03.297Z,99.90
2018-10-04T02:15:31.889Z,99.90
2018-10-04T02:18:00.466Z,99.90
2018-10-04T02:20:29.121Z,99.90
2018-10-04T02:22:57.654Z,99.90
2018-10-04T02:25:26.289Z,99.90
2018-10-04T02:27:54.957Z,99.90
2018-10-04T02:30:23.603Z,99.90
2018-10-04T02:32:52.166Z,99.90
2018-10-04T02:35:20.801Z,99.90
2018-10-04T02:37:49.353Z,99.90
2018-10-04T02:40:17.972Z,99.90
2018-10-04T02:42:46.540Z,99.90
2018-10-04T02:45:15.191Z,99.90
2018-10-04T02:47:43.852Z,99.90
2018-10-04T02:50:12.483Z,99.90
2018-10-04T02:52:41.029Z,99.90
2018-10-04T02:55:14.929Z,99.90
2018-10-04T02:57:43.489Z,99.90
2018-10-04T03:00:12.120Z,99.90
2018-10-04T03:02:40.689Z,99.90
2018-10-04T03:05:09.262Z,99.90
2018-10-04T03:07:37.882Z,99.90
2018-10-04T03:10:06.488Z,99.90
2018-10-04T03:12:35.149Z,99.90
2018-10-04T03:15:03.889Z,99.90
2018-10-04T03:17:32.589Z,99.90
2018-10-04T03:20:01.258Z,99.90
2018-10-04T03:22:29.804Z,99.90
2018-10-04T03:24:58.377Z,99.90
2018-10-04T03:27:27.044Z,99.90
2018-10-04T03:29:57.663Z,99.90
2018-10-04T03:32:26.330Z,99.90
2018-10-04T03:34:54.939Z,99.90
2018-10-04T03:37:23.477Z,99.90
2018-10-04T03:39:52.050Z,99.90
2018-10-04T03:42:20.667Z,99.90
2018-10-04T03:44:49.254Z,99.90
2018-10-04T03:47:17.793Z,99.90
2018-10-04T03:49:46.425Z,99.90
2018-10-04T03:52:14.990Z,99.90
2018-10-04T03:54:43.534Z,99.90
2018-10-04T03:57:13.213Z,99.90
2018-10-04T03:59:41.793Z,99.90
2018-10-04T04:02:10.409Z,99.90
2018-10-04T04:04:39.003Z,99.90
2018-10-04T04:07:07.561Z,99.90
2018-10-04T04:09:36.292Z,99.90
2018-10-04T04:12:04.893Z,99.90
2018-10-04T04:14:33.477Z,99.90
2018-10-04T04:17:02.127Z,99.90
2018-10-04T04:19:30.645Z,99.90
2018-10-04T04:21:59.292Z,99.90
2018-10-04T04:24:27.850Z,99.90
2018-10-04T04:26:56.457Z,99.90
2018-10-04T04:29:25.061Z,99.90
2018-10-04T04:31:53.731Z,99.90
2018-10-04T04:34:22.379Z,99.90
2018-10-04T04:36:51.024Z,99.90
2018-10-04T04:39:19.608Z,99.90
2018-10-04T04:41:48.201Z,99.90
2018-10-04T04:44:16.812Z,99.90
2018-10-04T04:46:45.508Z,99.90
2018-10-04T04:49:14.156Z,99.90
2018-10-04T04:51:44.255Z,99.90
2018-10-04T04:56:21.094Z,99.90
2018-10-04T04:58:49.642Z,99.90
2018-10-04T05:01:18.311Z,99.90
2018-10-04T05:03:46.891Z,99.90
2018-10-04T05:06:15.560Z,99.90
2018-10-04T05:08:44.098Z,99.90
2018-10-04T05:11:12.724Z,99.90
2018-10-04T05:13:41.350Z,99.90
2018-10-04T05:16:10.016Z,99.90
2018-10-04T05:18:38.596Z,99.90
2018-10-04T05:21:07.278Z,99.90
2018-10-04T05:23:36.202Z,99.90
2018-10-04T05:26:04.857Z,99.90
2018-10-04T05:28:33.437Z,99.90
2018-10-04T05:31:02.032Z,99.90
2018-10-04T05:33:30.612Z,99.90
2018-10-04T05:35:59.305Z,99.90
2018-10-04T05:38:27.978Z,99.90
2018-10-04T05:40:56.669Z,99.90
2018-10-04T05:43:25.269Z,99.90
2018-10-04T05:45:53.889Z,99.90
2018-10-04T05:48:22.465Z,99.90
2018-10-04T05:50:51.040Z,99.90
2018-10-04T05:53:19.739Z,99.90
2018-10-04T05:55:48.515Z,99.90
2018-10-04T05:58:17.173Z,99.90
2018-10-04T06:00:45.725Z,99.90
2018-10-04T06:03:14.401Z,99.90
2018-10-04T06:05:42.986Z,99.90
2018-10-04T06:08:11.543Z,99.90
2018-10-04T06:10:40.109Z,99.90
2018-10-04T06:13:08.633Z,99.90
2018-10-04T06:15:37.262Z,99.90
2018-10-04T06:18:05.856Z,99.90
2018-10-04T06:20:36.635Z,99.90
2018-10-04T06:23:05.273Z,99.90
2018-10-04T06:25:33.852Z,99.90
2018-10-04T06:28:02.612Z,99.90
2018-10-04T06:30:31.537Z,99.90
2018-10-04T06:33:00.221Z,99.90
2018-10-04T06:35:28.974Z,99.90
2018-10-04T06:37:57.607Z,99.90
2018-10-04T06:40:32.561Z,99.90
2018-10-04T06:43:01.156Z,99.90
2018-10-04T06:45:29.799Z,99.90
2018-10-04T06:47:58.452Z,99.90
2018-10-04T06:50:27.058Z,99.90
2018-10-04T06:52:55.685Z,99.90
2018-10-04T06:55:24.305Z,99.90
2018-10-04T06:57:52.970Z,99.90
2018-10-04T07:00:21.586Z,99.90
2018-10-04T07:02:50.239Z,99.90
2018-10-04T07:05:18.880Z,99.90
2018-10-04T07:07:47.609Z,99.90
2018-10-04T07:10:16.324Z,99.90
2018-10-04T07:12:44.915Z,99.90
2018-10-04T07:15:13.474Z,99.90
2018-10-04T07:17:42.217Z,99.90
2018-10-04T07:20:10.791Z,99.90
2018-10-04T07:22:39.384Z,99.90
2018-10-04T07:25:08.040Z,99.90
2018-10-04T07:27:36.670Z,99.90
2018-10-04T07:30:05.322Z,99.90
2018-10-04T07:32:33.929Z,99.90
2018-10-04T07:35:02.531Z,99.90
2018-10-04T07:37:31.149Z,99.90
2018-10-04T07:39:59.756Z,99.90
2018-10-04T07:42:28.513Z,99.90
2018-10-04T07:44:57.090Z,99.90
2018-10-04T07:47:25.691Z,99.90
2018-10-04T07:49:55.078Z,99.90
2018-10-04T07:52:23.719Z,99.90
2018-10-04T07:54:52.315Z,99.90
2018-10-04T07:57:20.977Z,99.90
2018-10-04T07:59:49.561Z,99.90
2018-10-04T08:02:18.213Z,99.90
2018-10-04T08:04:47.300Z,99.90
2018-10-04T08:07:15.840Z,99.90
2018-10-04T08:09:44.632Z,99.90
2018-10-04T08:12:13.205Z,99.90
2018-10-04T08:14:41.884Z,99.90
2018-10-04T08:17:10.439Z,99.90
2018-10-04T08:19:39.044Z,99.90
2018-10-04T08:22:08.032Z,99.90
2018-10-04T08:24:36.722Z,99.90
2018-10-04T08:27:05.325Z,99.90
2018-10-04T08:29:33.927Z,99.90
2018-10-04T08:32:03.589Z,99.90
2018-10-04T08:34:32.218Z,99.90
2018-10-04T08:37:00.823Z,99.90
2018-10-04T08:39:29.456Z,99.90
2018-10-04T08:41:58.008Z,99.90
2018-10-04T08:44:26.733Z,99.90
2018-10-04T08:46:55.310Z,99.90
2018-10-04T08:49:23.941Z,99.90
2018-10-04T08:51:53.118Z,99.90
2018-10-04T08:54:26.950Z,99.90
2018-10-04T08:56:56.660Z,99.90
2018-10-04T08:59:25.660Z,99.90
2018-10-04T09:01:55.066Z,99.90
2018-10-04T09:04:23.805Z,99.90
2018-10-04T09:06:52.386Z,99.90
2018-10-04T09:09:22.544Z,99.90
2018-10-04T09:11:52.145Z,99.90
2018-10-04T09:14:20.847Z,99.90
2018-10-04T09:16:49.415Z,99.90
2018-10-04T09:19:18.029Z,99.90
2018-10-04T09:21:46.593Z,99.90
2018-10-04T09:24:15.153Z,99.90
2018-10-04T09:26:43.776Z,99.90
2018-10-04T09:29:13.297Z,99.90
2018-10-04T09:31:44.937Z,99.90
2018-10-04T09:34:13.548Z,99.90
2018-10-04T09:36:42.154Z,99.90
2018-10-04T09:39:13.421Z,99.90
2018-10-04T09:41:42.139Z,99.90
2018-10-04T09:44:10.840Z,99.90
2018-10-04T09:46:39.405Z,99.90
2018-10-04T09:49:08.159Z,99.90
2018-10-04T09:51:42.062Z,99.70
2018-10-04T09:54:14.880Z,99.40
2018-10-04T09:56:48.837Z,99.30
2018-10-04T09:59:17.440Z,98.50
2018-10-04T10:01:51.342Z,98.60
2018-10-04T10:04:20.034Z,97.80
2018-10-04T10:06:48.713Z,97.60
2018-10-04T10:09:17.263Z,97.20
2018-10-04T10:11:45.941Z,96.60
2018-10-04T10:14:14.530Z,96.60
2018-10-04T10:16:43.202Z,95.60
2018-10-04T10:19:11.890Z,95.50
2018-10-04T10:21:40.537Z,95.30
2018-10-04T10:24:09.244Z,94.80
2018-10-04T10:26:37.826Z,94.20
2018-10-04T10:29:06.849Z,94.00
2018-10-04T10:31:35.415Z,93.70
2018-10-04T10:34:04.028Z,93.40
2018-10-04T10:36:32.700Z,93.10
2018-10-04T10:39:01.395Z,92.10
2018-10-04T10:41:30.020Z,92.30
2018-10-04T10:43:58.698Z,91.50
2018-10-04T10:46:27.427Z,90.60
2018-10-04T10:48:56.072Z,86.60
2018-10-04T10:51:24.664Z,84.90
2018-10-04T10:53:53.319Z,82.80
2018-10-04T10:56:22.011Z,81.00
2018-10-04T10:58:50.661Z,77.10
2018-10-04T11:01:19.321Z,74.30
2018-10-04T11:03:48.021Z,74.70
2018-10-04T11:06:16.631Z,73.90
2018-10-04T11:08:45.262Z,73.60
2018-10-04T11:11:13.932Z,75.10
2018-10-04T11:13:42.529Z,72.20
2018-10-04T11:16:11.100Z,69.40
2018-10-04T11:18:39.667Z,68.90
2018-10-04T11:21:10.421Z,69.30
2018-10-04T11:23:38.996Z,67.80
2018-10-04T11:26:08.627Z,65.30
2018-10-04T11:28:37.378Z,67.30
2018-10-04T11:31:05.962Z,65.80
2018-10-04T11:33:34.590Z,66.50
2018-10-04T11:36:03.143Z,64.30
2018-10-04T11:38:35.453Z,63.80
2018-10-04T11:41:04.142Z,62.90
2018-10-04T11:43:32.827Z,62.20
2018-10-04T11:46:04.542Z,61.30
2018-10-04T11:48:36.171Z,60.80
2018-10-04T11:51:04.720Z,60.40
2018-10-04T11:53:33.360Z,60.80
2018-10-04T11:56:01.957Z,60.30
2018-10-04T11:58:30.718Z,60.30
2018-10-04T12:01:01.484Z,61.10
2018-10-04T12:03:30.034Z,62.00
2018-10-04T12:05:58.656Z,60.70
2018-10-04T12:08:27.277Z,60.20
2018-10-04T12:10:55.964Z,59.70
2018-10-04T12:13:24.613Z,59.70
2018-10-04T12:15:53.215Z,59.60
2018-10-04T12:18:21.833Z,60.80
2018-10-04T12:20:50.463Z,61.10
2018-10-04T12:23:19.065Z,60.30
2018-10-04T12:25:47.804Z,59.40
2018-10-04T12:28:16.386Z,59.80
2018-10-04T12:30:49.384Z,59.50
2018-10-04T12:33:17.833Z,59.60
2018-10-04T12:35:46.445Z,58.60
2018-10-04T12:38:15.113Z,59.00
2018-10-04T12:40:43.708Z,58.50
2018-10-04T12:43:12.301Z,58.70
2018-10-04T12:45:40.877Z,58.50
2018-10-04T12:48:09.520Z,59.40
2018-10-04T12:50:41.995Z,59.30
2018-10-04T12:53:10.677Z,59.30
2018-10-04T12:55:39.240Z,59.10
2018-10-04T12:58:07.923Z,58.80
2018-10-04T13:00:36.518Z,58.40
2018-10-04T13:03:05.210Z,58.70
2018-10-04T13:05:33.775Z,58.30
2018-10-04T13:08:02.430Z,57.20
2018-10-04T13:10:31.124Z,57.10
2018-10-04T13:12:59.742Z,56.20
2018-10-04T13:15:28.423Z,55.60
2018-10-04T13:17:57.212Z,57.70
2018-10-04T13:20:25.867Z,57.00
2018-10-04T13:22:54.541Z,57.10
2018-10-04T13:25:23.076Z,57.00
2018-10-04T13:28:04.552Z,57.70
2018-10-04T13:30:33.162Z,57.50
2018-10-04T13:33:01.748Z,56.70
2018-10-04T13:35:32.348Z,56.80
2018-10-04T13:38:00.967Z,56.90
2018-10-04T13:40:29.483Z,56.80
2018-10-04T13:42:58.183Z,56.50
2018-10-04T13:45:26.761Z,55.50
2018-10-04T13:47:55.498Z,55.30
2018-10-04T13:50:26.215Z,55.00
2018-10-04T13:52:54.855Z,55.30
2018-10-04T13:55:27.432Z,56.00
2018-10-04T13:57:56.047Z,56.00
2018-10-04T14:00:24.692Z,55.60
2018-10-04T14:02:53.222Z,55.70
2018-10-04T14:05:28.668Z,56.10
2018-10-04T14:07:57.233Z,56.20
2018-10-04T14:10:25.846Z,56.40
2018-10-04T14:12:54.471Z,55.70
2018-10-04T14:15:28.309Z,55.60
2018-10-04T14:17:56.880Z,56.10
2018-10-04T14:20:25.485Z,55.30
2018-10-04T14:22:54.073Z,55.20
2018-10-04T14:25:23.767Z,55.50
2018-10-04T14:27:52.365Z,55.70
2018-10-04T14:30:22.014Z,55.20
2018-10-04T14:32:50.701Z,54.90
2018-10-04T14:35:20.404Z,55.50
2018-10-04T14:37:49.012Z,55.40
2018-10-04T14:40:19.759Z,55.10
2018-10-04T14:42:48.376Z,55.10
2018-10-04T14:45:17.002Z,55.30
2018-10-04T14:47:47.618Z,54.50
2018-10-04T14:50:16.246Z,54.60
2018-10-04T14:52:44.998Z,54.80
2018-10-04T14:55:13.577Z,55.70
2018-10-04T14:57:42.145Z,56.00
2018-10-04T15:00:10.714Z,55.40
2018-10-04T15:02:39.294Z,55.90
2018-10-04T15:05:07.968Z,54.70
2018-10-04T15:07:36.649Z,55.20
2018-10-04T15:10:05.750Z,56.10
2018-10-04T15:12:34.344Z,55.90
2018-10-04T15:15:02.952Z,55.20
2018-10-04T15:17:31.624Z,55.60
2018-10-04T15:20:00.397Z,55.40
2018-10-04T15:22:28.941Z,55.30
2018-10-04T15:24:57.571Z,55.30
2018-10-04T15:27:26.239Z,55.00
2018-10-04T15:29:54.925Z,54.80
2018-10-04T15:32:23.466Z,55.20
2018-10-04T15:34:52.076Z,55.30
2018-10-04T15:37:20.688Z,55.90
2018-10-04T15:39:49.316Z,54.90
2018-10-04T15:42:17.891Z,56.00
2018-10-04T15:44:46.599Z,56.60
2018-10-04T15:47:15.193Z,56.60
2018-10-04T15:49:43.827Z,56.30
2018-10-04T15:52:12.507Z,56.20
2018-10-04T15:54:41.185Z,56.70
2018-10-04T15:57:09.801Z,57.30
2018-10-04T15:59:38.445Z,57.10
2018-10-04T16:02:07.191Z,57.10
2018-10-04T16:04:35.889Z,57.70
2018-10-04T16:07:04.488Z,57.70
2018-10-04T16:09:33.129Z,57.50
2018-10-04T16:12:02.950Z,57.60
2018-10-04T16:14:31.643Z,57.80
2018-10-04T16:17:00.220Z,58.00
2018-10-04T16:19:28.935Z,58.10
2018-10-04T16:21:57.506Z,58.50
2018-10-04T16:24:26.125Z,59.10
2018-10-04T16:26:55.840Z,61.20
2018-10-04T16:29:24.467Z,64.10
2018-10-04T16:31:53.147Z,63.90
2018-10-04T16:34:21.778Z,66.00
2018-10-04T16:36:50.379Z,66.30
2018-10-04T16:39:19.481Z,69.20
2018-10-04T16:41:48.258Z,72.30
2018-10-04T16:44:16.866Z,74.60
2018-10-04T16:46:45.558Z,75.80
2018-10-04T16:49:14.265Z,77.60
2018-10-04T16:51:42.894Z,78.80
2018-10-04T16:54:11.521Z,79.60
2018-10-04T16:56:40.143Z,80.10
2018-10-04T16:59:08.747Z,81.70
2018-10-04T17:01:38.392Z,83.00
2018-10-04T17:04:07.216Z,83.90
2018-10-04T17:06:36.053Z,85.30
2018-10-04T17:09:06.481Z,87.70
2018-10-04T17:11:35.121Z,89.00
2018-10-04T17:14:04.264Z,90.20
2018-10-04T17:16:32.902Z,90.90
2018-10-04T17:19:01.560Z,92.20
2018-10-04T17:21:30.273Z,93.20
2018-10-04T17:23:58.857Z,94.00
2018-10-04T17:26:27.456Z,94.30
2018-10-04T17:28:56.087Z,94.40
2018-10-04T17:31:27.937Z,94.10
2018-10-04T17:33:57.446Z,94.40
2018-10-04T17:36:26.090Z,94.70
2018-10-04T17:38:54.639Z,95.20
2018-10-04T17:41:23.269Z,95.30
2018-10-04T17:43:51.897Z,95.50
2018-10-04T17:46:20.506Z,95.70
2018-10-04T17:48:49.218Z,95.80
2018-10-04T17:51:17.833Z,96.00
2018-10-04T17:53:46.518Z,96.30
2018-10-04T17:56:15.101Z,96.50
2018-10-04T17:58:43.751Z,96.60
2018-10-04T18:01:13.497Z,97.00
2018-10-04T18:03:42.181Z,97.00
2018-10-04T18:06:10.850Z,97.00
2018-10-04T18:08:39.633Z,97.20
2018-10-04T18:11:08.321Z,97.40
2018-10-04T18:13:37.059Z,97.40
2018-10-04T18:16:24.269Z,97.50
2018-10-04T18:18:52.897Z,97.40
2018-10-04T18:21:22.575Z,97.60
2018-10-04T18:23:51.228Z,97.70
2018-10-04T18:26:19.848Z,97.70
2018-10-04T18:28:48.402Z,97.90
2018-10-04T18:31:16.988Z,98.30
2018-10-04T18:33:45.672Z,98.40
2018-10-04T18:36:14.302Z,98.70
2018-10-04T18:38:43.054Z,98.90
2018-10-04T18:41:12.307Z,99.10
2018-10-04T18:43:40.950Z,99.10
2018-10-04T18:46:09.559Z,99.20
2018-10-04T18:48:38.243Z,99.40
2018-10-04T18:51:07.003Z,99.50
2018-10-04T18:53:35.737Z,99.70
2018-10-04T18:56:04.350Z,99.70
2018-10-04T18:58:32.938Z,99.90
2018-10-04T19:01:01.461Z,99.90
2018-10-04T19:03:30.622Z,99.90
2018-10-04T19:05:59.265Z,99.90
2018-10-04T19:08:27.965Z,99.90
2018-10-04T19:10:56.556Z,99.90
2018-10-04T19:13:26.251Z,99.80
2018-10-04T19:15:54.870Z,99.80
2018-10-04T19:18:23.603Z,99.90
2018-10-04T19:20:52.156Z,99.90
2018-10-04T19:23:20.888Z,99.90
2018-10-04T19:25:49.475Z,99.90
2018-10-04T19:28:19.160Z,99.80
2018-10-04T19:30:47.836Z,99.80
2018-10-04T19:33:16.732Z,99.90
2018-10-04T19:35:45.491Z,99.90
2018-10-04T19:38:14.146Z,99.90
2018-10-04T19:40:42.802Z,99.90
2018-10-04T19:43:11.987Z,99.90
2018-10-04T19:45:41.027Z,99.90
2018-10-04T19:48:09.679Z,99.90
2018-10-04T19:50:38.391Z,99.90
2018-10-04T19:53:07.045Z,99.90
2018-10-04T19:55:35.677Z,99.90
2018-10-04T19:58:04.299Z,99.90
2018-10-04T20:00:34.004Z,99.90
2018-10-04T20:03:02.682Z,99.90
2018-10-04T20:05:31.468Z,99.90
2018-10-04T20:08:00.225Z,99.90
2018-10-04T20:10:28.860Z,99.90
2018-10-04T20:12:57.585Z,99.90
2018-10-04T20:15:26.173Z,99.90
2018-10-04T20:17:54.783Z,99.90
2018-10-04T20:20:24.826Z,99.90
2018-10-04T20:22:53.729Z,99.90
2018-10-04T20:25:26.725Z,99.90
2018-10-04T20:27:55.336Z,99.90
2018-10-04T20:30:24.023Z,99.90
2018-10-04T20:32:52.624Z,99.90
2018-10-04T20:35:21.272Z,99.90
2018-10-04T20:37:50.155Z,99.90
2018-10-04T20:40:19.457Z,99.90
2018-10-04T20:42:48.052Z,99.90
2018-10-04T20:45:16.636Z,99.90
2018-10-04T20:47:45.272Z,99.90
2018-10-04T20:50:13.903Z,99.90
2018-10-04T20:52:42.596Z,99.90
2018-10-04T20:55:11.279Z,99.90
2018-10-04T20:57:39.837Z,99.90
2018-10-04T21:00:09.116Z,99.90
2018-10-04T21:02:37.763Z,99.90
2018-10-04T21:05:07.357Z,99.90
2018-10-04T21:07:36.001Z,99.90
2018-10-04T21:10:04.625Z,99.90
2018-10-04T21:12:33.218Z,99.90
2018-10-04T21:15:01.852Z,99.90
2018-10-04T21:17:30.476Z,99.90
2018-10-04T21:19:59.372Z,99.90
2018-10-04T21:22:27.990Z,99.90
2018-10-04T21:24:56.537Z,99.90
2018-10-04T21:27:25.165Z,99.90
2018-10-04T21:29:53.754Z,99.90
2018-10-04T21:32:22.321Z,99.90
2018-10-04T21:34:50.923Z,99.90
2018-10-04T21:37:19.505Z,99.90
2018-10-04T21:39:48.214Z,99.90
2018-10-04T21:42:16.859Z,99.90
2018-10-04T21:44:45.556Z,99.90
2018-10-04T21:47:14.109Z,99.90
2018-10-04T21:49:42.794Z,99.90
2018-10-04T21:52:11.366Z,99.90
2018-10-04T21:54:40.020Z,99.90
2018-10-04T21:57:08.607Z,99.90
2018-10-04T21:59:37.186Z,99.90
2018-10-04T22:02:06.044Z,99.90
2018-10-04T22:04:34.789Z,99.90
2018-10-04T22:07:03.417Z,99.90
2018-10-04T22:09:31.989Z,99.90
2018-10-04T22:12:00.616Z,99.90
2018-10-04T22:14:29.271Z,99.90
2018-10-04T22:16:57.874Z,99.90
2018-10-04T22:19:26.472Z,99.90
2018-10-04T22:21:57.110Z,99.90
2018-10-04T22:24:25.696Z,99.90
2018-10-04T22:26:54.316Z,99.90
2018-10-04T22:29:22.858Z,99.90
2018-10-04T22:31:51.473Z,99.90
2018-10-04T22:34:20.092Z,99.90
2018-10-04T22:36:48.717Z,99.90
2018-10-04T22:39:17.266Z,99.90
2018-10-04T22:41:45.892Z,99.90
2018-10-04T22:44:14.481Z,99.90
2018-10-04T22:46:43.081Z,99.90
2018-10-04T22:49:11.734Z,99.90
2018-10-04T22:51:40.395Z,99.90
2018-10-04T22:54:09.038Z,99.90
2018-10-04T22:56:38.766Z,99.90
2018-10-04T22:59:07.277Z,99.90
2018-10-04T23:01:36.405Z,99.90
2018-10-04T23:04:05.089Z,99.90
2018-10-04T23:06:33.725Z,99.90
2018-10-04T23:09:02.427Z,99.90
2018-10-04T23:11:31.102Z,99.90
2018-10-04T23:13:59.708Z,99.90
2018-10-04T23:16:28.286Z,99.90
2018-10-04T23:18:56.941Z,99.90
2018-10-04T23:21:25.609Z,99.90
2018-10-04T23:23:54.163Z,99.90
2018-10-04T23:26:22.701Z,99.90
2018-10-04T23:28:51.287Z,99.90
2018-10-04T23:31:19.872Z,99.90
2018-10-04T23:33:48.452Z,99.90
2018-10-04T23:36:17.120Z,99.90
2018-10-04T23:38:45.770Z,99.90
2018-10-04T23:41:14.394Z,99.90
2018-10-04T23:43:43.460Z,99.90
2018-10-04T23:46:18.934Z,99.90
2018-10-04T23:48:47.482Z,99.90
2018-10-04T23:51:16.113Z,99.90
2018-10-04T23:53:44.696Z,99.90
2018-10-04T23:56:13.497Z,99.90
2018-10-04T23:58:42.133Z,99.90
